Time;durP1;ratioP1;P1;durP2;ratioP2;P2;SDS_P1;SDS_P2;PMS_P1;PMS_P2;Temp;Humidity;BMP_temperature;BMP_pressure;BME280_temperature;BME280_humidity;BME280_pressure;Samples;Min_cycle;Max_cycle;Signal;HPM_P1;HPM_P2
2023/09/14 00:01:15;;;;;;;5.18;2.30;;;;;;;11.35;100.00;101500.44;5036291;28;20110;-80
2023/09/14 00:03:41;;;;;;;5.35;2.10;;;;;;;11.34;100.00;101501.28;5051145;28;20052;-80
2023/09/14 00:06:08;;;;;;;5.78;2.35;;;;;;;11.30;100.00;101507.41;5032844;28;20396;-81
2023/09/14 00:08:35;;;;;;;5.45;2.08;;;;;;;11.27;100.00;101496.94;5064577;28;20057;-81
2023/09/14 00:11:04;;;;;;;5.32;1.90;;;;;;;11.24;100.00;101503.03;5038676;28;20053;-81
2023/09/14 00:13:31;;;;;;;4.53;1.77;;;;;;;11.27;100.00;101503.03;5051291;28;20076;-82
2023/09/14 00:15:59;;;;;;;4.40;1.67;;;;;;;11.27;100.00;101502.19;5038883;28;20053;-81
2023/09/14 00:18:28;;;;;;;9.45;2.47;;;;;;;11.27;100.00;101494.31;5037283;28;20733;-80
2023/09/14 00:20:57;;;;;;;10.65;2.00;;;;;;;11.28;100.00;101494.31;5053316;28;20474;-80
2023/09/14 00:23:23;;;;;;;7.75;2.20;;;;;;;11.28;100.00;101498.66;5066391;28;20079;-81
2023/09/14 00:25:50;;;;;;;10.98;2.20;;;;;;;11.24;100.00;101501.28;5055246;28;20186;-79
2023/09/14 00:28:18;;;;;;;10.73;1.60;;;;;;;11.19;100.00;101494.28;5042196;28;20578;-81
2023/09/14 00:30:44;;;;;;;11.45;1.73;;;;;;;11.17;100.00;101494.31;5031327;28;20036;-79
2023/09/14 00:33:11;;;;;;;5.25;1.73;;;;;;;11.14;100.00;101496.91;5051665;28;20084;-81
2023/09/14 00:35:37;;;;;;;10.57;2.03;;;;;;;11.14;100.00;101499.50;5046742;28;20079;-80
2023/09/14 00:38:04;;;;;;;4.40;1.70;;;;;;;11.12;100.00;101498.66;5056504;28;20044;-80
2023/09/14 00:40:31;;;;;;;6.95;1.70;;;;;;;11.11;100.00;101507.38;5054177;28;20562;-81
2023/09/14 00:43:01;;;;;;;9.90;1.90;;;;;;;11.08;100.00;101503.00;5054609;28;20129;-81
2023/09/14 00:45:33;;;;;;;4.80;1.75;;;;;;;11.05;100.00;101509.97;5056213;28;20522;-81
2023/09/14 00:48:02;;;;;;;5.03;1.88;;;;;;;11.05;100.00;101509.97;5054007;28;20053;-81
2023/09/14 00:50:30;;;;;;;3.55;1.20;;;;;;;10.99;100.00;101505.59;5066355;28;20036;-80
2023/09/14 00:53:13;;;;;;;9.05;1.63;;;;;;;11.00;100.00;101514.31;5052890;28;20518;-80
2023/09/14 00:55:40;;;;;;;8.32;2.10;;;;;;;10.99;100.00;101512.56;5050653;28;20080;-80
2023/09/14 00:58:14;;;;;;;18.17;2.55;;;;;;;10.98;100.00;101513.47;5038924;28;20080;-81
2023/09/14 01:00:42;;;;;;;5.47;1.75;;;;;;;10.95;100.00;101511.72;5038347;28;20048;-81
2023/09/14 01:03:11;;;;;;;4.53;1.85;;;;;;;10.91;100.00;101513.44;5069421;28;20079;-80
2023/09/14 01:05:41;;;;;;;7.78;1.80;;;;;;;10.86;100.00;101509.94;5033260;28;20033;-80
2023/09/14 01:08:13;;;;;;;5.80;2.03;;;;;;;10.83;100.00;101515.13;5049307;28;20529;-80
2023/09/14 01:10:40;;;;;;;6.15;1.88;;;;;;;10.82;100.00;101516.03;5048204;28;20045;-80
2023/09/14 01:13:18;;;;;;;4.68;1.52;;;;;;;10.82;100.00;101505.56;5049305;28;20049;-81
2023/09/14 01:15:53;;;;;;;4.05;1.90;;;;;;;10.80;100.00;101517.75;5031101;28;20095;-81
2023/09/14 01:18:36;;;;;;;6.50;2.15;;;;;;;10.80;100.00;101516.88;5048709;28;20447;-79
2023/09/14 01:21:33;;;;;;;8.93;2.58;;;;;;;10.84;100.00;101521.25;5041573;28;20037;-79
2023/09/14 01:24:25;;;;;;;4.88;1.60;;;;;;;10.82;100.00;101526.50;5046715;28;20048;-81
2023/09/14 01:26:53;;;;;;;3.60;1.98;;;;;;;10.82;100.00;101518.66;5043638;28;20045;-80
2023/09/14 01:29:19;;;;;;;8.32;2.08;;;;;;;10.83;100.00;101516.88;5053430;28;20451;-81
2023/09/14 01:31:46;;;;;;;6.40;1.80;;;;;;;10.82;100.00;101523.00;5038608;28;20491;-81
2023/09/14 01:34:13;;;;;;;8.82;1.83;;;;;;;10.80;100.00;101520.38;5050187;28;20407;-81
2023/09/14 01:36:58;;;;;;;6.53;2.00;;;;;;;10.78;100.00;101513.38;5038177;28;20045;-81
2023/09/14 01:39:27;;;;;;;9.00;1.65;;;;;;;10.80;100.00;101527.38;5046330;28;20052;-80
2023/09/14 01:41:56;;;;;;;6.28;1.48;;;;;;;10.75;100.00;101522.97;5048852;28;20179;-81
2023/09/14 01:44:27;;;;;;;4.35;1.42;;;;;;;10.76;100.00;101531.72;5069447;28;20049;-82
2023/09/14 01:46:57;;;;;;;7.05;2.17;;;;;;;10.75;100.00;101529.94;5054883;28;20041;-81
2023/09/14 01:49:24;;;;;;;7.57;2.03;;;;;;;10.73;100.00;101534.31;5058176;28;20037;-81
2023/09/14 01:51:51;;;;;;;5.07;1.92;;;;;;;10.73;100.00;101532.56;5055640;28;20159;-80
2023/09/14 01:54:18;;;;;;;7.63;2.67;;;;;;;10.74;100.00;101533.44;5055577;28;20139;-81
2023/09/14 01:56:46;;;;;;;8.60;2.47;;;;;;;10.69;100.00;101532.53;5042649;28;20056;-80
2023/09/14 01:59:12;;;;;;;7.07;2.00;;;;;;;10.66;100.00;101532.53;5075174;28;20037;-81
2023/09/14 02:01:40;;;;;;;5.13;1.77;;;;;;;10.65;100.00;101528.16;5035765;28;20124;-81
2023/09/14 02:04:07;;;;;;;6.28;1.40;;;;;;;10.63;100.00;101533.38;5055512;28;20055;-81
2023/09/14 02:06:36;;;;;;;4.40;1.42;;;;;;;10.61;100.00;101527.25;5052506;28;20044;-82
2023/09/14 02:09:03;;;;;;;6.80;1.52;;;;;;;10.62;100.00;101528.16;5055048;28;20419;-80
2023/09/14 02:11:30;;;;;;;6.30;1.83;;;;;;;10.62;100.00;101523.78;5061747;28;20076;-82
2023/09/14 02:13:56;;;;;;;11.85;2.60;;;;;;;10.58;100.00;101522.00;5051624;28;20041;-80
2023/09/14 02:16:24;;;;;;;6.75;1.45;;;;;;;10.58;100.00;101525.50;5053656;28;20095;-79
2023/09/14 02:18:50;;;;;;;6.43;1.63;;;;;;;10.58;100.00;101528.13;5051957;28;20037;-79
2023/09/14 02:21:17;;;;;;;3.53;1.63;;;;;;;10.55;100.00;101528.09;5037195;28;20103;-81
2023/09/14 02:23:44;;;;;;;8.93;1.73;;;;;;;10.55;100.00;101525.50;5068292;28;20080;-80
2023/09/14 02:26:13;;;;;;;5.88;2.10;;;;;;;10.53;100.00;101528.97;5053152;28;20052;-81
2023/09/14 02:28:40;;;;;;;3.05;1.52;;;;;;;10.47;100.00;101521.97;5037913;28;20064;-79
2023/09/14 02:31:08;;;;;;;6.78;2.97;;;;;;;10.48;100.00;101523.72;5037606;28;20044;-80
2023/09/14 02:33:36;;;;;;;3.17;1.45;;;;;;;10.48;100.00;101515.88;5049784;28;20562;-82
2023/09/14 02:36:03;;;;;;;9.13;1.98;;;;;;;10.47;100.00;101521.06;5048121;28;20101;-81
2023/09/14 02:38:30;;;;;;;4.65;2.28;;;;;;;10.45;100.00;101523.69;5036399;28;20071;-81
2023/09/14 02:40:59;;;;;;;6.78;2.38;;;;;;;10.45;100.00;101528.06;5049263;28;20071;-80
2023/09/14 02:43:28;;;;;;;5.00;1.48;;;;;;;10.43;100.00;101528.06;5034652;28;20049;-80
2023/09/14 02:45:54;;;;;;;8.32;1.60;;;;;;;10.45;100.00;101528.06;5035752;28;20470;-81
2023/09/14 02:48:21;;;;;;;5.43;2.13;;;;;;;10.45;100.00;101528.06;5053701;28;20454;-80
2023/09/14 02:50:48;;;;;;;9.23;2.13;;;;;;;10.43;100.00;101528.06;5036902;28;20040;-79
2023/09/14 02:53:15;;;;;;;5.15;2.40;;;;;;;10.47;100.00;101531.53;5035518;28;20045;-80
2023/09/14 02:55:42;;;;;;;4.93;1.67;;;;;;;10.40;100.00;101535.88;5040387;28;20063;-80
2023/09/14 02:58:09;;;;;;;10.20;3.08;;;;;;;10.38;100.00;101533.25;5034168;28;20045;-80
2023/09/14 03:00:39;;;;;;;8.77;2.65;;;;;;;10.36;100.00;101529.75;5039637;28;20083;-80
2023/09/14 03:03:09;;;;;;;8.75;4.30;;;;;;;10.37;100.00;101528.88;5037577;28;20117;-81
2023/09/14 03:05:36;;;;;;;6.10;1.90;;;;;;;10.34;100.00;101530.56;5052137;28;20057;-79
2023/09/14 03:08:03;;;;;;;5.53;1.83;;;;;;;10.34;100.00;101525.31;5058249;28;20047;-80
2023/09/14 03:10:29;;;;;;;9.85;2.47;;;;;;;10.32;100.00;101534.94;5041376;28;20060;-80
2023/09/14 03:12:56;;;;;;;5.47;1.60;;;;;;;10.31;100.00;101538.41;5034774;28;20136;-80
2023/09/14 03:15:22;;;;;;;6.93;2.08;;;;;;;10.26;100.00;101534.03;5031693;28;20419;-81
2023/09/14 03:17:51;;;;;;;5.53;2.10;;;;;;;10.27;100.00;101541.00;5034939;28;20051;-81
2023/09/14 03:20:18;;;;;;;5.20;1.92;;;;;;;10.30;100.00;101541.88;5035588;28;20092;-80
2023/09/14 03:22:45;;;;;;;3.78;1.60;;;;;;;10.29;100.00;101542.78;5037337;28;20048;-80
2023/09/14 03:25:13;;;;;;;3.03;1.67;;;;;;;10.26;100.00;101536.63;5052729;28;20041;-80
2023/09/14 03:27:40;;;;;;;10.05;2.53;;;;;;;10.25;100.00;101541.88;5033505;28;20053;-82
2023/09/14 03:30:10;;;;;;;7.88;2.67;;;;;;;10.25;100.00;101539.25;5052783;28;20064;-81
2023/09/14 03:32:37;;;;;;;6.22;2.20;;;;;;;10.25;100.00;101545.34;5050748;28;20037;-80
2023/09/14 03:35:04;;;;;;;5.95;1.98;;;;;;;10.25;100.00;101541.88;5034358;28;20044;-81
2023/09/14 03:37:35;;;;;;;8.32;1.98;;;;;;;10.24;100.00;101534.88;5049396;28;20079;-81
2023/09/14 03:40:02;;;;;;;8.48;1.88;;;;;;;10.17;100.00;101541.81;5032010;28;20504;-81
2023/09/14 03:42:31;;;;;;;2.65;1.88;;;;;;;10.24;100.00;101547.97;5052611;28;20060;-81
2023/09/14 03:44:58;;;;;;;7.80;3.45;;;;;;;10.24;100.00;101551.44;5048565;28;20252;-82
2023/09/14 03:47:25;;;;;;;8.75;1.52;;;;;;;10.26;100.00;101546.25;5048425;28;20037;-80
2023/09/14 03:49:51;;;;;;;3.67;2.13;;;;;;;10.22;100.00;101554.91;5038171;28;20064;-80
2023/09/14 03:52:18;;;;;;;4.60;1.52;;;;;;;10.22;100.00;101553.19;5031175;28;20041;-81
2023/09/14 03:54:45;;;;;;;3.75;1.58;;;;;;;10.18;100.00;101555.75;5048619;28;20112;-80
2023/09/14 03:57:15;;;;;;;11.90;2.70;;;;;;;10.17;100.00;101561.84;5035838;28;20118;-81
2023/09/14 03:59:43;;;;;;;7.38;2.20;;;;;;;10.15;100.00;101556.63;5032127;28;20422;-82
2023/09/14 04:02:10;;;;;;;8.70;2.75;;;;;;;10.15;100.00;101566.22;5048508;28;20041;-79
2023/09/14 04:04:42;;;;;;;6.78;1.70;;;;;;;10.16;100.00;101560.13;5028439;28;20132;-80
2023/09/14 04:07:10;;;;;;;7.78;2.03;;;;;;;10.15;100.00;101566.22;5032802;28;20045;-81
2023/09/14 04:09:38;;;;;;;5.93;1.75;;;;;;;10.16;100.00;101560.13;5062572;28;20045;-81
2023/09/14 04:12:06;;;;;;;7.45;1.63;;;;;;;10.18;100.00;101563.59;5050818;28;20043;-80
2023/09/14 04:14:32;;;;;;;7.38;2.33;;;;;;;10.18;100.00;101566.22;5067641;28;20040;-79
2023/09/14 04:17:00;;;;;;;8.35;1.98;;;;;;;10.19;100.00;101571.47;5050909;28;20060;-79
2023/09/14 04:19:31;;;;;;;4.53;2.10;;;;;;;10.19;100.00;101578.44;5050239;28;20056;-83
2023/09/14 04:22:06;;;;;;;3.75;2.30;;;;;;;10.17;100.00;101570.59;5048570;28;20140;-81
2023/09/14 04:24:33;;;;;;;4.20;1.80;;;;;;;10.17;100.00;101577.53;5036366;28;20045;-81
2023/09/14 04:27:02;;;;;;;10.80;2.53;;;;;;;10.16;100.00;101575.81;5042052;28;20047;-81
2023/09/14 04:29:31;;;;;;;5.55;1.75;;;;;;;10.16;100.00;101574.06;5041599;28;20049;-81
2023/09/14 04:31:58;;;;;;;9.32;3.00;;;;;;;10.15;100.00;101574.94;5049618;28;20045;-81
2023/09/14 04:34:25;;;;;;;4.80;2.38;;;;;;;10.10;100.00;101577.53;5033208;28;20751;-83
2023/09/14 04:36:52;;;;;;;4.55;1.92;;;;;;;10.14;100.00;101573.16;5032748;28;20111;-82
2023/09/14 04:39:19;;;;;;;4.70;2.28;;;;;;;10.12;100.00;101574.03;5031539;28;20785;-80
2023/09/14 04:41:45;;;;;;;5.00;2.60;;;;;;;10.08;100.00;101578.38;5059961;28;20432;-81
2023/09/14 04:44:14;;;;;;;5.10;1.88;;;;;;;10.09;100.00;101580.13;5050886;28;20557;-80
2023/09/14 04:46:41;;;;;;;11.27;2.25;;;;;;;10.10;100.00;101576.63;5053852;28;20055;-82
2023/09/14 04:49:07;;;;;;;8.45;1.80;;;;;;;10.07;100.00;101571.38;5049250;28;20190;-83
2023/09/14 04:51:34;;;;;;;6.25;2.55;;;;;;;10.04;100.00;101577.47;5030896;28;20060;-82
2023/09/14 04:54:02;;;;;;;3.53;2.08;;;;;;;10.04;100.00;101567.00;5046010;28;20065;-80
2023/09/14 04:56:31;;;;;;;7.43;2.67;;;;;;;10.05;100.00;101570.47;5043529;28;20569;-81
2023/09/14 04:58:58;;;;;;;8.80;2.10;;;;;;;10.06;100.00;101578.38;5031961;28;20488;-82
2023/09/14 05:01:25;;;;;;;6.93;2.05;;;;;;;10.08;100.00;101583.63;5025663;28;20102;-84
2023/09/14 05:03:51;;;;;;;6.88;2.45;;;;;;;10.08;100.00;101584.47;5008775;28;20141;-82
2023/09/14 05:06:18;;;;;;;10.43;2.78;;;;;;;10.13;100.00;101587.13;5020323;28;20072;-81
2023/09/14 05:08:44;;;;;;;10.27;2.30;;;;;;;10.18;100.00;101587.16;5021380;28;20063;-83
2023/09/14 05:11:11;;;;;;;11.32;2.75;;;;;;;10.18;100.00;101587.16;5018833;28;20062;-83
2023/09/14 05:13:37;;;;;;;6.60;2.38;;;;;;;10.17;100.00;101596.75;5022105;28;20054;-81
2023/09/14 05:16:04;;;;;;;8.18;2.42;;;;;;;10.19;100.00;101596.75;5020186;28;20046;-82
2023/09/14 05:18:34;;;;;;;12.25;4.22;;;;;;;10.22;100.00;101591.53;5013845;28;20095;-81
2023/09/14 05:21:01;;;;;;;8.20;2.47;;;;;;;10.26;100.00;101594.22;5036082;28;20076;-81
2023/09/14 05:23:27;;;;;;;8.73;2.38;;;;;;;10.32;100.00;101592.50;5041131;28;20050;-83
2023/09/14 05:25:54;;;;;;;6.38;2.03;;;;;;;10.34;100.00;101594.28;5046200;28;20442;-83
2023/09/14 05:28:23;;;;;;;3.67;1.85;;;;;;;10.38;100.00;101593.44;5041262;28;20057;-83
2023/09/14 05:30:49;;;;;;;14.43;2.45;;;;;;;10.37;100.00;101596.06;5032746;28;20046;-82
2023/09/14 05:33:16;;;;;;;4.20;2.00;;;;;;;10.39;100.00;101595.22;5041726;28;20508;-83
2023/09/14 05:35:48;;;;;;;5.80;2.55;;;;;;;10.45;100.00;101603.97;5014949;28;20041;-82
2023/09/14 05:38:15;;;;;;;6.68;2.08;;;;;;;10.45;100.00;101607.44;5028040;28;20041;-82
2023/09/14 05:40:41;;;;;;;10.10;2.33;;;;;;;10.50;100.00;101605.75;5010805;28;20045;-81
2023/09/14 05:43:08;;;;;;;7.05;2.00;;;;;;;10.56;100.00;101607.56;5019306;28;20069;-81
2023/09/14 05:45:34;;;;;;;6.50;2.38;;;;;;;10.64;100.00;101608.47;5034060;28;20060;-82
2023/09/14 05:48:04;;;;;;;6.82;2.25;;;;;;;10.65;100.00;101614.56;5024304;28;20068;-81
2023/09/14 05:50:35;;;;;;;7.32;1.83;;;;;;;10.65;100.00;101615.47;5002844;28;20149;-81
2023/09/14 05:53:02;;;;;;;5.15;1.63;;;;;;;10.71;100.00;101623.31;5012456;28;20511;-82
2023/09/14 05:55:29;;;;;;;6.95;2.13;;;;;;;10.75;100.00;101617.28;5034612;28;20045;-82
2023/09/14 05:57:55;;;;;;;9.82;2.25;;;;;;;10.81;100.00;101616.41;5017347;28;20053;-82
2023/09/14 06:00:24;;;;;;;11.20;2.17;;;;;;;10.88;100.00;101617.31;5017779;28;20041;-82
2023/09/14 06:02:55;;;;;;;4.85;2.10;;;;;;;10.92;100.00;101616.47;4975885;28;20045;-83
2023/09/14 06:05:25;;;;;;;4.45;3.33;;;;;;;10.99;100.00;101620.88;5032158;28;20042;-81
2023/09/14 06:07:55;;;;;;;6.88;3.10;;;;;;;11.11;100.00;101629.66;5035540;28;20128;-83
2023/09/14 06:10:24;;;;;;;12.02;5.45;;;;;;;11.18;100.00;101624.44;5048336;28;20608;-82
2023/09/14 06:12:51;;;;;;;11.05;4.70;;;;;;;11.29;100.00;101626.22;5012431;28;20462;-81
2023/09/14 06:15:18;;;;;;;22.15;4.63;;;;;;;11.41;100.00;101629.78;5028258;28;20236;-81
2023/09/14 06:17:44;;;;;;;17.27;5.68;;;;;;;11.52;99.84;101632.41;5006140;28;20072;-82
2023/09/14 06:20:12;;;;;;;14.68;4.97;;;;;;;11.72;99.20;101634.22;5045703;28;20075;-82
2023/09/14 06:22:39;;;;;;;12.15;5.50;;;;;;;13.56;92.23;101629.56;5056883;28;20072;-80
2023/09/14 06:25:06;;;;;;;9.43;4.43;;;;;;;17.03;70.98;101628.72;5013889;23;20558;-80
2023/09/14 06:27:33;;;;;;;12.50;4.97;;;;;;;18.71;62.34;101632.75;4983413;28;20058;-78
2023/09/14 06:30:06;;;;;;;12.93;5.70;;;;;;;19.32;59.81;101632.81;4977016;28;20054;-79
2023/09/14 06:32:35;;;;;;;19.67;7.63;;;;;;;20.01;57.41;101635.09;4979650;28;20560;-84
2023/09/14 06:35:04;;;;;;;22.98;9.68;;;;;;;20.77;54.64;101635.25;4982361;28;20096;-81
2023/09/14 06:37:31;;;;;;;26.58;9.75;;;;;;;20.74;53.16;101636.22;4983560;28;20060;-80
2023/09/14 06:39:57;;;;;;;13.27;7.50;;;;;;;21.31;52.51;101646.53;4969579;28;20089;-76
2023/09/14 06:42:24;;;;;;;14.68;7.57;;;;;;;22.00;49.97;101647.44;4982495;28;20964;-76
2023/09/14 06:44:51;;;;;;;11.35;6.43;;;;;;;22.56;47.91;101646.00;4985513;28;20054;-78
2023/09/14 06:47:18;;;;;;;10.43;5.57;;;;;;;22.93;47.55;101653.22;4989787;28;20130;-78
2023/09/14 06:49:44;;;;;;;11.38;5.13;;;;;;;23.19;46.43;101653.84;4994348;28;20089;-82
2023/09/14 06:52:11;;;;;;;14.65;4.75;;;;;;;23.52;45.48;101647.00;5007401;28;20022;-82
2023/09/14 06:54:37;;;;;;;11.25;4.55;;;;;;;23.95;44.52;101653.84;5006051;28;20034;-83
2023/09/14 06:57:05;;;;;;;6.25;3.83;;;;;;;23.68;43.48;101653.34;5010973;28;20123;-84
2023/09/14 06:59:33;;;;;;;9.65;3.15;;;;;;;23.03;45.09;101651.00;5001900;28;20042;-82
2023/09/14 07:02:02;;;;;;;9.07;2.38;;;;;;;23.35;44.81;101651.34;4985409;28;20202;-83
2023/09/14 07:04:30;;;;;;;5.07;1.77;;;;;;;23.68;44.76;101650.69;4973389;28;20048;-81
2023/09/14 07:06:57;;;;;;;7.00;2.30;;;;;;;23.93;44.41;101650.38;4997788;28;20050;-80
2023/09/14 07:09:24;;;;;;;11.45;3.17;;;;;;;24.27;42.77;101650.50;4979925;28;20047;-80
2023/09/14 07:11:52;;;;;;;9.75;4.70;;;;;;;24.46;42.91;101647.75;4979562;28;20045;-78
2023/09/14 07:14:18;;;;;;;12.30;4.47;;;;;;;24.71;42.28;101649.16;4977195;28;20047;-77
2023/09/14 07:16:45;;;;;;;7.70;3.00;;;;;;;25.08;41.52;101656.09;4981344;28;20137;-79
2023/09/14 07:19:13;;;;;;;20.35;7.35;;;;;;;25.05;40.91;101656.25;4980952;28;20057;-80
2023/09/14 07:21:40;;;;;;;11.77;7.28;;;;;;;24.87;40.18;101662.59;4977116;28;20042;-79
2023/09/14 07:24:07;;;;;;;17.38;7.75;;;;;;;24.50;40.14;101670.72;4978140;28;20066;-78
2023/09/14 07:26:38;;;;;;;14.07;6.82;;;;;;;24.98;39.89;101676.28;4979029;28;20126;-79
2023/09/14 07:29:04;;;;;;;16.15;6.32;;;;;;;25.22;39.63;101679.44;4981990;28;20117;-80
2023/09/14 07:31:31;;;;;;;10.88;5.65;;;;;;;25.52;39.62;101676.06;4978973;28;20035;-77
2023/09/14 07:33:58;;;;;;;8.63;2.20;;;;;;;25.83;39.56;101677.00;4978028;28;20154;-78
2023/09/14 07:36:24;;;;;;;8.75;2.50;;;;;;;24.90;40.37;101675.81;4977472;28;20073;-79
2023/09/14 07:38:51;;;;;;;3.90;1.60;;;;;;;24.88;40.77;101678.59;4982194;28;20089;-80
2023/09/14 07:41:17;;;;;;;4.18;1.92;;;;;;;24.21;41.26;101683.78;4982045;28;20776;-78
2023/09/14 07:43:44;;;;;;;5.63;2.00;;;;;;;25.00;40.54;101671.69;4977369;28;20049;-83
2023/09/14 07:46:10;;;;;;;10.38;2.85;;;;;;;25.15;39.70;101680.75;4981072;28;20061;-80
2023/09/14 07:48:37;;;;;;;8.60;2.20;;;;;;;25.66;39.04;101677.13;4978402;28;20038;-77
2023/09/14 07:51:04;;;;;;;6.43;2.10;;;;;;;25.04;38.39;101683.97;4979412;28;20146;-81
2023/09/14 07:53:30;;;;;;;5.53;2.25;;;;;;;24.78;40.14;101685.38;4976435;28;20054;-78
2023/09/14 07:55:57;;;;;;;3.47;1.65;;;;;;;24.80;40.60;101688.84;4977268;28;20543;-79
2023/09/14 07:58:23;;;;;;;5.38;1.83;;;;;;;24.63;40.30;101697.75;4977223;28;20074;-78
2023/09/14 08:00:50;;;;;;;3.53;1.88;;;;;;;24.56;40.92;101694.50;4974889;28;20526;-76
2023/09/14 08:03:17;;;;;;;5.38;2.25;;;;;;;24.57;40.56;101692.69;4972784;28;20489;-84
2023/09/14 08:05:44;;;;;;;4.25;3.08;;;;;;;24.44;40.64;101698.69;4959744;28;20167;-78
2023/09/14 08:08:11;;;;;;;4.43;3.05;;;;;;;24.97;39.88;101700.50;4964381;28;20577;-77
2023/09/14 08:10:38;;;;;;;6.47;2.97;;;;;;;25.10;39.84;101694.38;4991794;28;20052;-78
2023/09/14 08:13:05;;;;;;;9.05;3.47;;;;;;;24.80;40.03;101704.91;4980775;28;20100;-77
2023/09/14 08:15:31;;;;;;;10.15;5.88;;;;;;;25.18;39.63;101703.81;4983141;28;20070;-79
2023/09/14 08:18:00;;;;;;;11.98;6.53;;;;;;;25.51;39.45;101697.59;4993764;28;20053;-78
2023/09/14 08:20:27;;;;;;;23.23;10.57;;;;;;;26.30;37.41;101706.56;4979391;28;20411;-77
2023/09/14 08:22:54;;;;;;;17.00;11.20;;;;;;;26.66;37.60;101708.00;4964365;28;20042;-78
2023/09/14 08:25:21;;;;;;;19.20;9.68;;;;;;;26.25;37.75;101710.38;4972997;28;20113;-79
2023/09/14 08:27:47;;;;;;;15.80;8.95;;;;;;;26.09;38.49;101712.22;4996805;28;20089;-79
2023/09/14 08:30:15;;;;;;;17.23;5.88;;;;;;;24.88;39.74;101715.22;4978363;28;20043;-82
2023/09/14 08:32:41;;;;;;;12.75;4.32;;;;;;;24.20;40.88;101722.19;4972111;28;20050;-79
2023/09/14 08:35:31;;;;;;;7.78;3.40;;;;;;;24.38;41.18;101719.50;4977883;28;20046;-78
2023/09/14 08:38:02;;;;;;;7.88;2.40;;;;;;;24.33;40.72;101716.22;4979303;28;20042;-79
2023/09/14 08:40:29;;;;;;;6.55;1.73;;;;;;;25.36;39.64;101710.88;4981921;28;20046;-78
2023/09/14 08:42:57;;;;;;;5.38;2.00;;;;;;;25.43;38.99;101709.63;4964371;28;20104;-79
2023/09/14 08:45:29;;;;;;;6.57;1.90;;;;;;;26.39;36.60;101711.41;4963839;28;20053;-80
2023/09/14 08:47:57;;;;;;;3.70;1.00;;;;;;;26.11;36.50;101718.34;4978573;28;20117;-80
2023/09/14 08:50:27;;;;;;;4.57;1.27;;;;;;;25.94;37.60;101721.97;4978480;28;20046;-83
2023/09/14 08:52:54;;;;;;;3.97;1.38;;;;;;;26.40;36.45;101718.50;4992608;28;20708;-82
2023/09/14 08:55:44;;;;;;;3.15;1.15;;;;;;;26.01;35.74;101726.06;4983265;28;20040;-80
2023/09/14 08:58:13;;;;;;;2.58;1.00;;;;;;;26.52;36.34;101725.81;4978765;28;20125;-79
2023/09/14 09:00:40;;;;;;;2.58;0.70;;;;;;;26.06;36.39;101726.69;4978795;28;20049;-81
2023/09/14 09:03:07;;;;;;;4.38;1.60;;;;;;;27.15;35.54;101731.88;4976725;28;20042;-79
2023/09/14 09:05:34;;;;;;;9.18;2.47;;;;;;;27.90;34.13;101728.97;4966928;28;20065;-79
2023/09/14 09:08:01;;;;;;;2.25;0.82;;;;;;;27.01;34.81;101727.38;4976750;28;20047;-81
2023/09/14 09:10:31;;;;;;;4.60;1.42;;;;;;;25.34;36.80;101723.47;4981167;28;20062;-80
2023/09/14 09:13:05;;;;;;;4.15;0.85;;;;;;;25.61;35.24;101728.31;4978564;28;20155;-80
2023/09/14 09:15:34;;;;;;;6.38;1.55;;;;;;;26.66;34.56;101727.69;4961303;28;20507;-81
2023/09/14 09:18:10;;;;;;;1.10;1.00;;;;;;;26.73;33.19;101726.38;4981673;28;20133;-82
2023/09/14 09:20:41;;;;;;;1.73;0.77;;;;;;;23.90;36.72;101725.41;4983764;28;20034;-81
2023/09/14 09:23:08;;;;;;;2.22;0.80;;;;;;;22.88;38.75;101727.31;4971779;28;20042;-79
2023/09/14 09:25:54;;;;;;;4.70;0.80;;;;;;;21.58;40.65;101724.56;4998087;28;20046;-80
2023/09/14 09:28:30;;;;;;;5.53;1.38;;;;;;;21.92;41.01;101727.72;4984963;28;20140;-78
2023/09/14 09:31:01;;;;;;;3.13;0.93;;;;;;;21.51;40.96;101722.16;4980967;28;20046;-80
2023/09/14 09:33:38;;;;;;;3.97;1.05;;;;;;;20.58;42.47;101728.09;4974919;28;21762;-79
2023/09/14 09:36:21;;;;;;;4.30;1.20;;;;;;;20.18;43.79;101722.31;4981296;28;20070;-81
2023/09/14 09:38:49;;;;;;;5.50;0.77;;;;;;;19.66;45.35;101720.31;4980567;28;20042;-78
2023/09/14 09:41:16;;;;;;;2.10;1.02;;;;;;;19.69;45.25;101726.47;4975804;28;20058;-79
2023/09/14 09:43:45;;;;;;;4.70;1.13;;;;;;;19.30;45.84;101717.81;4993241;28;20042;-78
2023/09/14 09:46:19;;;;;;;2.08;0.93;;;;;;;19.07;45.98;101715.78;4974564;28;20073;-78
2023/09/14 09:48:46;;;;;;;4.22;0.90;;;;;;;18.90;46.20;101716.25;4980931;28;20492;-80
2023/09/14 09:51:12;;;;;;;5.20;1.45;;;;;;;18.54;47.00;101713.63;4982135;28;20526;-77
2023/09/14 09:54:05;;;;;;;2.25;0.98;;;;;;;18.67;47.47;101720.34;4970107;28;20046;-80
2023/09/14 09:56:35;;;;;;;3.63;0.60;;;;;;;18.67;47.25;101716.84;4982740;28;20486;-80
2023/09/14 09:59:09;;;;;;;3.33;1.20;;;;;;;18.50;47.13;101712.84;4978704;28;20428;-79
2023/09/14 10:01:38;;;;;;;2.97;0.70;;;;;;;18.39;47.45;101712.22;4977554;28;20410;-78
2023/09/14 10:04:17;;;;;;;2.38;0.73;;;;;;;20.28;43.97;101707.75;4981228;28;20434;-79
2023/09/14 10:06:52;;;;;;;6.85;0.82;;;;;;;22.28;39.64;101705.81;4987061;28;20125;-80
2023/09/14 10:09:19;;;;;;;3.20;1.20;;;;;;;24.34;36.86;101708.13;4983625;28;20483;-78
2023/09/14 10:11:47;;;;;;;5.15;1.08;;;;;;;23.87;37.62;101706.81;4979914;28;20054;-79
2023/09/14 10:14:16;;;;;;;1.55;0.60;;;;;;;23.60;37.68;101717.88;4963815;28;20142;-82
2023/09/14 10:16:45;;;;;;;2.72;0.85;;;;;;;22.42;39.42;101706.16;4984057;28;20043;-77
2023/09/14 10:19:13;;;;;;;5.03;1.02;;;;;;;21.53;40.27;101709.66;4972644;28;20050;-82
2023/09/14 10:21:40;;;;;;;3.90;0.95;;;;;;;20.58;42.26;101710.31;4999874;28;20631;-80
2023/09/14 10:24:07;;;;;;;2.40;1.15;;;;;;;20.27;42.80;101716.69;4981891;28;20069;-82
2023/09/14 10:26:37;;;;;;;2.80;1.15;;;;;;;20.46;42.79;101716.94;4983854;28;20046;-79
2023/09/14 10:29:09;;;;;;;4.97;0.98;;;;;;;19.91;43.72;101713.41;4996769;28;20061;-80
2023/09/14 10:31:36;;;;;;;4.68;2.05;;;;;;;19.60;44.41;101715.16;4982274;28;20074;-82
2023/09/14 10:34:09;;;;;;;0.98;0.60;;;;;;;19.03;43.13;101706.19;4981424;28;20069;-80
2023/09/14 10:36:38;;;;;;;0.65;0.65;;;;;;;19.24;43.58;101706.50;4984156;28;20035;-78
2023/09/14 10:39:06;;;;;;;4.57;0.90;;;;;;;19.40;44.46;101698.94;4995487;28;20962;-78
2023/09/14 10:41:34;;;;;;;4.03;1.25;;;;;;;20.15;42.89;101696.69;4983959;28;20069;-79
2023/09/14 10:44:00;;;;;;;6.68;1.08;;;;;;;19.86;43.37;101704.72;4982421;28;20038;-78
2023/09/14 10:46:35;;;;;;;3.97;0.70;;;;;;;19.94;42.61;101694.72;4965421;28;20094;-79
2023/09/14 10:49:03;;;;;;;6.60;1.30;;;;;;;20.09;42.84;101698.66;4980631;28;20057;-78
2023/09/14 10:51:29;;;;;;;6.00;1.02;;;;;;;19.95;43.68;101697.31;4981882;28;20108;-79
2023/09/14 10:53:58;;;;;;;2.83;0.85;;;;;;;19.98;43.72;101693.69;5000825;28;20046;-82
2023/09/14 10:56:30;;;;;;;2.40;0.80;;;;;;;20.19;43.25;101696.56;4982373;28;20800;-80
2023/09/14 10:58:59;;;;;;;1.80;0.60;;;;;;;20.22;42.59;101694.69;4981058;28;20046;-78
2023/09/14 11:01:28;;;;;;;3.10;0.70;;;;;;;20.82;41.79;101682.03;4981317;28;20030;-80
2023/09/14 11:04:08;;;;;;;2.33;1.10;;;;;;;21.17;40.85;101684.31;4985159;28;20134;-78
2023/09/14 11:06:52;;;;;;;3.80;0.98;;;;;;;20.95;40.73;101678.91;4978478;28;20075;-80
2023/09/14 11:09:23;;;;;;;4.00;1.15;;;;;;;20.73;41.84;101677.03;4986209;28;20049;-80
2023/09/14 11:11:51;;;;;;;5.00;1.00;;;;;;;20.71;42.27;101668.22;4983541;28;20054;-78
2023/09/14 11:14:20;;;;;;;4.05;1.15;;;;;;;20.24;42.33;101663.59;4980518;28;20041;-78
2023/09/14 11:16:58;;;;;;;5.50;0.98;;;;;;;20.45;42.31;101659.34;4967858;28;20049;-80
2023/09/14 11:19:31;;;;;;;2.72;1.13;;;;;;;21.86;39.12;101662.16;4978933;28;20519;-79
2023/09/14 11:22:15;;;;;;;3.83;0.98;;;;;;;23.82;36.79;101663.38;4978557;28;20050;-78
2023/09/14 11:24:46;;;;;;;1.13;1.00;;;;;;;25.59;32.98;101663.16;4982534;28;20051;-78
2023/09/14 11:27:19;;;;;;;6.43;1.23;;;;;;;27.20;31.52;101659.91;4984753;28;20046;-83